sensor_id;sensor_type;location;lat;lon;timestamp;temperature;humidity
8313;DHT22;4194;43.408;24.626;2024-01-06T00:01:37;8.30;99.90
8313;DHT22;4194;43.408;24.626;2024-01-06T00:04:02;8.10;99.90
8313;DHT22;4194;43.408;24.626;2024-01-06T00:06:28;8.10;99.90
8313;DHT22;4194;43.408;24.626;2024-01-06T00:08:54;8.00;99.90
8313;DHT22;4194;43.408;24.626;2024-01-06T00:11:21;7.90;99.90
8313;DHT22;4194;43.408;24.626;2024-01-06T00:13:47;8.10;99.90
8313;DHT22;4194;43.408;24.626;2024-01-06T00:16:16;8.30;99.90
8313;DHT22;4194;43.408;24.626;2024-01-06T00:18:41;8.30;99.90
8313;DHT22;4194;43.408;24.626;2024-01-06T00:21:08;8.40;99.90
8313;DHT22;4194;43.408;24.626;2024-01-06T00:23:33;7.40;99.90
8313;DHT22;4194;43.408;24.626;2024-01-06T00:25:59;7.80;99.90
8313;DHT22;4194;43.408;24.626;2024-01-06T00:28:25;7.80;99.90
8313;DHT22;4194;43.408;24.626;2024-01-06T00:30:50;8.10;99.90
8313;DHT22;4194;43.408;24.626;2024-01-06T00:33:16;7.80;99.90
8313;DHT22;4194;43.408;24.626;2024-01-06T00:35:42;7.60;99.90
8313;DHT22;4194;43.408;24.626;2024-01-06T00:38:07;7.70;99.90
8313;DHT22;4194;43.408;24.626;2024-01-06T00:40:33;7.70;99.90
8313;DHT22;4194;43.408;24.626;2024-01-06T00:42:59;7.60;99.90
8313;DHT22;4194;43.408;24.626;2024-01-06T00:45:25;7.70;99.90
8313;DHT22;4194;43.408;24.626;2024-01-06T00:47:50;7.70;99.90
8313;DHT22;4194;43.408;24.626;2024-01-06T00:50:17;7.40;99.90
8313;DHT22;4194;43.408;24.626;2024-01-06T00:52:44;7.60;99.90
8313;DHT22;4194;43.408;24.626;2024-01-06T00:55:10;7.60;99.90
8313;DHT22;4194;43.408;24.626;2024-01-06T00:57:36;7.40;99.90
8313;DHT22;4194;43.408;24.626;2024-01-06T01:00:05;7.50;99.90
8313;DHT22;4194;43.408;24.626;2024-01-06T01:02:31;7.50;99.90
8313;DHT22;4194;43.408;24.626;2024-01-06T01:04:57;7.60;99.90
8313;DHT22;4194;43.408;24.626;2024-01-06T01:07:24;7.60;99.90
8313;DHT22;4194;43.408;24.626;2024-01-06T01:09:49;7.00;99.90
8313;DHT22;4194;43.408;24.626;2024-01-06T01:12:15;7.50;99.90
8313;DHT22;4194;43.408;24.626;2024-01-06T01:14:41;7.90;99.90
8313;DHT22;4194;43.408;24.626;2024-01-06T01:17:07;7.50;99.90
8313;DHT22;4194;43.408;24.626;2024-01-06T01:19:32;7.50;99.90
8313;DHT22;4194;43.408;24.626;2024-01-06T01:21:58;7.50;99.90
8313;DHT22;4194;43.408;24.626;2024-01-06T01:24:24;7.40;99.90
8313;DHT22;4194;43.408;24.626;2024-01-06T01:26:49;7.30;99.90
8313;DHT22;4194;43.408;24.626;2024-01-06T01:29:16;7.30;99.90
8313;DHT22;4194;43.408;24.626;2024-01-06T01:31:42;7.30;99.90
8313;DHT22;4194;43.408;24.626;2024-01-06T01:34:08;7.40;99.90
8313;DHT22;4194;43.408;24.626;2024-01-06T01:36:34;7.30;99.90
8313;DHT22;4194;43.408;24.626;2024-01-06T01:38:59;7.50;99.90
8313;DHT22;4194;43.408;24.626;2024-01-06T01:41:25;6.90;99.90
8313;DHT22;4194;43.408;24.626;2024-01-06T01:43:51;7.00;99.90
8313;DHT22;4194;43.408;24.626;2024-01-06T01:46:28;7.10;99.90
8313;DHT22;4194;43.408;24.626;2024-01-06T01:48:55;7.30;99.90
8313;DHT22;4194;43.408;24.626;2024-01-06T01:51:21;6.60;99.90
8313;DHT22;4194;43.408;24.626;2024-01-06T01:53:49;7.00;99.90
8313;DHT22;4194;43.408;24.626;2024-01-06T01:56:16;6.90;99.90
8313;DHT22;4194;43.408;24.626;2024-01-06T01:58:42;6.90;99.90
8313;DHT22;4194;43.408;24.626;2024-01-06T02:01:08;6.30;99.90
8313;DHT22;4194;43.408;24.626;2024-01-06T02:03:35;7.00;99.90
8313;DHT22;4194;43.408;24.626;2024-01-06T02:06:01;6.70;99.90
8313;DHT22;4194;43.408;24.626;2024-01-06T02:08:27;6.30;99.90
8313;DHT22;4194;43.408;24.626;2024-01-06T02:10:56;6.50;99.90
8313;DHT22;4194;43.408;24.626;2024-01-06T02:13:23;6.00;99.90
8313;DHT22;4194;43.408;24.626;2024-01-06T02:15:49;6.60;99.90
8313;DHT22;4194;43.408;24.626;2024-01-06T02:18:15;7.00;99.90
8313;DHT22;4194;43.408;24.626;2024-01-06T02:20:46;6.60;99.90
8313;DHT22;4194;43.408;24.626;2024-01-06T02:23:13;6.90;99.90
8313;DHT22;4194;43.408;24.626;2024-01-06T02:25:39;6.50;99.90
8313;DHT22;4194;43.408;24.626;2024-01-06T02:28:05;6.30;99.90
8313;DHT22;4194;43.408;24.626;2024-01-06T02:30:30;6.30;99.90
8313;DHT22;4194;43.408;24.626;2024-01-06T02:32:56;6.70;99.90
8313;DHT22;4194;43.408;24.626;2024-01-06T02:35:22;6.60;99.90
8313;DHT22;4194;43.408;24.626;2024-01-06T02:37:47;6.30;99.90
8313;DHT22;4194;43.408;24.626;2024-01-06T02:40:13;6.30;99.90
8313;DHT22;4194;43.408;24.626;2024-01-06T02:42:39;6.60;99.90
8313;DHT22;4194;43.408;24.626;2024-01-06T02:45:06;6.20;99.90
8313;DHT22;4194;43.408;24.626;2024-01-06T02:47:32;6.20;99.90
8313;DHT22;4194;43.408;24.626;2024-01-06T02:49:58;6.10;99.90
8313;DHT22;4194;43.408;24.626;2024-01-06T02:52:24;6.10;99.90
8313;DHT22;4194;43.408;24.626;2024-01-06T02:54:49;6.50;99.90
8313;DHT22;4194;43.408;24.626;2024-01-06T02:57:15;6.50;99.90
8313;DHT22;4194;43.408;24.626;2024-01-06T02:59:41;6.10;99.90
8313;DHT22;4194;43.408;24.626;2024-01-06T03:02:07;5.70;99.90
8313;DHT22;4194;43.408;24.626;2024-01-06T03:04:32;6.00;99.90
8313;DHT22;4194;43.408;24.626;2024-01-06T03:06:58;6.00;99.90
8313;DHT22;4194;43.408;24.626;2024-01-06T03:09:24;5.80;99.90
8313;DHT22;4194;43.408;24.626;2024-01-06T03:11:49;5.90;99.90
8313;DHT22;4194;43.408;24.626;2024-01-06T03:14:15;5.90;99.90
8313;DHT22;4194;43.408;24.626;2024-01-06T03:16:41;5.80;99.90
8313;DHT22;4194;43.408;24.626;2024-01-06T03:19:06;5.90;99.90
8313;DHT22;4194;43.408;24.626;2024-01-06T03:21:32;6.30;99.90
8313;DHT22;4194;43.408;24.626;2024-01-06T03:23:58;5.70;99.90
8313;DHT22;4194;43.408;24.626;2024-01-06T03:26:23;5.70;99.90
8313;DHT22;4194;43.408;24.626;2024-01-06T03:28:49;5.70;99.90
8313;DHT22;4194;43.408;24.626;2024-01-06T03:31:15;5.70;99.90
8313;DHT22;4194;43.408;24.626;2024-01-06T03:33:42;5.60;99.90
8313;DHT22;4194;43.408;24.626;2024-01-06T03:36:08;5.60;99.90
8313;DHT22;4194;43.408;24.626;2024-01-06T03:38:34;5.30;99.90
8313;DHT22;4194;43.408;24.626;2024-01-06T03:41:00;5.60;99.90
8313;DHT22;4194;43.408;24.626;2024-01-06T03:43:25;5.50;99.90
8313;DHT22;4194;43.408;24.626;2024-01-06T03:45:51;5.50;99.90
8313;DHT22;4194;43.408;24.626;2024-01-06T03:48:17;5.50;99.90
8313;DHT22;4194;43.408;24.626;2024-01-06T03:50:42;5.40;99.90
8313;DHT22;4194;43.408;24.626;2024-01-06T03:53:08;5.20;99.90
8313;DHT22;4194;43.408;24.626;2024-01-06T03:55:34;5.30;99.90
8313;DHT22;4194;43.408;24.626;2024-01-06T03:57:59;5.30;99.90
8313;DHT22;4194;43.408;24.626;2024-01-06T04:00:28;5.30;99.90
8313;DHT22;4194;43.408;24.626;2024-01-06T04:02:54;5.20;99.90
8313;DHT22;4194;43.408;24.626;2024-01-06T04:05:19;5.00;99.90
8313;DHT22;4194;43.408;24.626;2024-01-06T04:07:45;5.30;99.90
8313;DHT22;4194;43.408;24.626;2024-01-06T04:10:11;5.00;99.90
8313;DHT22;4194;43.408;24.626;2024-01-06T04:12:36;5.00;99.90
8313;DHT22;4194;43.408;24.626;2024-01-06T04:15:02;5.00;99.90
8313;DHT22;4194;43.408;24.626;2024-01-06T04:17:28;4.90;99.90
8313;DHT22;4194;43.408;24.626;2024-01-06T04:19:54;5.20;99.90
8313;DHT22;4194;43.408;24.626;2024-01-06T04:22:20;5.30;99.90
8313;DHT22;4194;43.408;24.626;2024-01-06T04:24:45;5.40;99.90
8313;DHT22;4194;43.408;24.626;2024-01-06T04:27:11;5.20;99.90
8313;DHT22;4194;43.408;24.626;2024-01-06T04:29:37;5.40;99.90
8313;DHT22;4194;43.408;24.626;2024-01-06T04:32:02;5.10;99.90
8313;DHT22;4194;43.408;24.626;2024-01-06T04:34:28;5.40;99.90
8313;DHT22;4194;43.408;24.626;2024-01-06T04:36:54;5.40;99.90
8313;DHT22;4194;43.408;24.626;2024-01-06T04:39:19;5.40;99.90
8313;DHT22;4194;43.408;24.626;2024-01-06T04:41:45;6.10;99.90
8313;DHT22;4194;43.408;24.626;2024-01-06T04:44:11;5.30;99.90
8313;DHT22;4194;43.408;24.626;2024-01-06T04:46:36;5.50;99.90
8313;DHT22;4194;43.408;24.626;2024-01-06T04:49:02;5.30;99.90
8313;DHT22;4194;43.408;24.626;2024-01-06T04:51:28;5.50;99.90
8313;DHT22;4194;43.408;24.626;2024-01-06T04:53:53;5.50;99.90
8313;DHT22;4194;43.408;24.626;2024-01-06T04:56:19;5.50;99.90
8313;DHT22;4194;43.408;24.626;2024-01-06T04:58:45;5.60;99.90
8313;DHT22;4194;43.408;24.626;2024-01-06T05:01:11;5.50;99.90
8313;DHT22;4194;43.408;24.626;2024-01-06T05:03:37;5.40;99.90
8313;DHT22;4194;43.408;24.626;2024-01-06T05:06:03;5.60;99.90
8313;DHT22;4194;43.408;24.626;2024-01-06T05:08:29;2.50;99.90
8313;DHT22;4194;43.408;24.626;2024-01-06T05:10:56;5.50;99.90
8313;DHT22;4194;43.408;24.626;2024-01-06T05:13:22;5.50;99.90
8313;DHT22;4194;43.408;24.626;2024-01-06T05:15:47;5.60;99.90
8313;DHT22;4194;43.408;24.626;2024-01-06T05:18:13;5.40;99.90
8313;DHT22;4194;43.408;24.626;2024-01-06T05:20:39;5.70;99.90
8313;DHT22;4194;43.408;24.626;2024-01-06T05:23:06;6.00;99.90
8313;DHT22;4194;43.408;24.626;2024-01-06T05:25:32;5.80;99.90
8313;DHT22;4194;43.408;24.626;2024-01-06T05:27:58;5.90;99.90
8313;DHT22;4194;43.408;24.626;2024-01-06T05:30:24;5.80;99.90
8313;DHT22;4194;43.408;24.626;2024-01-06T05:32:49;5.80;99.90
8313;DHT22;4194;43.408;24.626;2024-01-06T05:35:18;5.70;99.90
8313;DHT22;4194;43.408;24.626;2024-01-06T05:37:43;5.80;99.90
8313;DHT22;4194;43.408;24.626;2024-01-06T05:40:09;5.40;99.90
8313;DHT22;4194;43.408;24.626;2024-01-06T05:42:36;5.50;99.90
8313;DHT22;4194;43.408;24.626;2024-01-06T05:45:02;5.70;99.90
8313;DHT22;4194;43.408;24.626;2024-01-06T05:47:28;5.80;99.90
8313;DHT22;4194;43.408;24.626;2024-01-06T05:49:54;5.80;99.90
8313;DHT22;4194;43.408;24.626;2024-01-06T05:52:19;5.60;99.90
8313;DHT22;4194;43.408;24.626;2024-01-06T05:54:45;6.20;99.90
8313;DHT22;4194;43.408;24.626;2024-01-06T05:57:10;6.20;99.90
8313;DHT22;4194;43.408;24.626;2024-01-06T05:59:37;5.70;99.90
8313;DHT22;4194;43.408;24.626;2024-01-06T06:02:03;5.70;99.90
8313;DHT22;4194;43.408;24.626;2024-01-06T06:04:29;5.80;99.90
8313;DHT22;4194;43.408;24.626;2024-01-06T06:06:54;5.80;99.90
8313;DHT22;4194;43.408;24.626;2024-01-06T06:09:20;5.90;99.90
8313;DHT22;4194;43.408;24.626;2024-01-06T06:11:47;5.90;99.90
8313;DHT22;4194;43.408;24.626;2024-01-06T06:14:13;5.50;99.90
8313;DHT22;4194;43.408;24.626;2024-01-06T06:16:39;5.90;99.90
8313;DHT22;4194;43.408;24.626;2024-01-06T06:19:05;5.90;99.90
8313;DHT22;4194;43.408;24.626;2024-01-06T06:21:32;5.90;99.90
8313;DHT22;4194;43.408;24.626;2024-01-06T06:23:57;5.90;99.90
8313;DHT22;4194;43.408;24.626;2024-01-06T06:26:23;6.00;99.90
8313;DHT22;4194;43.408;24.626;2024-01-06T06:28:49;6.00;99.90
8313;DHT22;4194;43.408;24.626;2024-01-06T06:31:15;6.10;99.90
8313;DHT22;4194;43.408;24.626;2024-01-06T06:33:40;6.00;99.90
8313;DHT22;4194;43.408;24.626;2024-01-06T06:36:07;6.30;99.90
8313;DHT22;4194;43.408;24.626;2024-01-06T06:38:33;6.00;99.90
8313;DHT22;4194;43.408;24.626;2024-01-06T06:40:59;6.00;99.90
8313;DHT22;4194;43.408;24.626;2024-01-06T06:43:24;6.40;99.90
8313;DHT22;4194;43.408;24.626;2024-01-06T06:45:50;6.00;99.90
8313;DHT22;4194;43.408;24.626;2024-01-06T06:48:16;6.50;99.90
8313;DHT22;4194;43.408;24.626;2024-01-06T06:50:41;5.90;99.90
8313;DHT22;4194;43.408;24.626;2024-01-06T06:53:08;6.10;99.90
8313;DHT22;4194;43.408;24.626;2024-01-06T06:55:33;6.60;99.90
8313;DHT22;4194;43.408;24.626;2024-01-06T06:57:59;6.20;99.90
8313;DHT22;4194;43.408;24.626;2024-01-06T07:00:25;6.40;99.90
8313;DHT22;4194;43.408;24.626;2024-01-06T07:02:51;6.20;99.90
8313;DHT22;4194;43.408;24.626;2024-01-06T07:05:17;5.90;99.90
8313;DHT22;4194;43.408;24.626;2024-01-06T07:07:43;6.30;99.90
8313;DHT22;4194;43.408;24.626;2024-01-06T07:10:12;6.30;99.90
8313;DHT22;4194;43.408;24.626;2024-01-06T07:12:38;6.90;99.90
8313;DHT22;4194;43.408;24.626;2024-01-06T07:15:04;6.60;99.90
8313;DHT22;4194;43.408;24.626;2024-01-06T07:17:30;6.50;99.90
8313;DHT22;4194;43.408;24.626;2024-01-06T07:19:55;6.60;99.90
8313;DHT22;4194;43.408;24.626;2024-01-06T07:22:21;6.70;99.90
8313;DHT22;4194;43.408;24.626;2024-01-06T07:24:47;7.00;99.90
8313;DHT22;4194;43.408;24.626;2024-01-06T07:27:13;6.90;99.90
8313;DHT22;4194;43.408;24.626;2024-01-06T07:29:39;7.10;99.90
8313;DHT22;4194;43.408;24.626;2024-01-06T07:32:05;7.00;99.90
8313;DHT22;4194;43.408;24.626;2024-01-06T07:34:32;6.90;99.90
8313;DHT22;4194;43.408;24.626;2024-01-06T07:36:58;7.40;99.90
8313;DHT22;4194;43.408;24.626;2024-01-06T07:39:24;7.30;99.90
8313;DHT22;4194;43.408;24.626;2024-01-06T07:41:50;7.80;99.90
8313;DHT22;4194;43.408;24.626;2024-01-06T07:44:16;7.80;99.90
8313;DHT22;4194;43.408;24.626;2024-01-06T07:46:50;7.40;99.90
8313;DHT22;4194;43.408;24.626;2024-01-06T07:49:17;7.70;99.90
8313;DHT22;4194;43.408;24.626;2024-01-06T07:51:42;7.50;99.90
8313;DHT22;4194;43.408;24.626;2024-01-06T07:54:08;7.50;99.90
8313;DHT22;4194;43.408;24.626;2024-01-06T07:56:35;7.60;99.90
8313;DHT22;4194;43.408;24.626;2024-01-06T07:59:04;8.10;99.90
8313;DHT22;4194;43.408;24.626;2024-01-06T08:01:32;7.20;99.90
8313;DHT22;4194;43.408;24.626;2024-01-06T08:03:58;7.80;99.90
8313;DHT22;4194;43.408;24.626;2024-01-06T08:06:24;7.60;99.90
8313;DHT22;4194;43.408;24.626;2024-01-06T08:08:51;7.90;99.90
8313;DHT22;4194;43.408;24.626;2024-01-06T08:11:17;8.00;99.90
8313;DHT22;4194;43.408;24.626;2024-01-06T08:13:42;7.80;99.90
8313;DHT22;4194;43.408;24.626;2024-01-06T08:16:09;7.70;99.90
8313;DHT22;4194;43.408;24.626;2024-01-06T08:18:34;7.70;99.90
8313;DHT22;4194;43.408;24.626;2024-01-06T08:21:00;8.20;99.90
8313;DHT22;4194;43.408;24.626;2024-01-06T08:23:25;8.20;99.90
8313;DHT22;4194;43.408;24.626;2024-01-06T08:25:51;8.30;99.90
8313;DHT22;4194;43.408;24.626;2024-01-06T08:28:17;8.40;99.90
8313;DHT22;4194;43.408;24.626;2024-01-06T08:30:44;8.40;99.90
8313;DHT22;4194;43.408;24.626;2024-01-06T08:33:10;8.50;99.90
8313;DHT22;4194;43.408;24.626;2024-01-06T08:35:36;8.90;99.90
8313;DHT22;4194;43.408;24.626;2024-01-06T08:38:06;8.70;99.90
8313;DHT22;4194;43.408;24.626;2024-01-06T08:40:33;9.20;99.90
8313;DHT22;4194;43.408;24.626;2024-01-06T08:42:59;9.10;99.90
8313;DHT22;4194;43.408;24.626;2024-01-06T08:45:24;9.40;99.90
8313;DHT22;4194;43.408;24.626;2024-01-06T08:47:50;9.60;99.90
8313;DHT22;4194;43.408;24.626;2024-01-06T08:50:15;9.70;98.80
8313;DHT22;4194;43.408;24.626;2024-01-06T08:52:41;9.80;98.00
8313;DHT22;4194;43.408;24.626;2024-01-06T08:55:07;9.80;97.80
8313;DHT22;4194;43.408;24.626;2024-01-06T08:57:33;9.90;97.00
8313;DHT22;4194;43.408;24.626;2024-01-06T08:59:59;10.00;96.20
8313;DHT22;4194;43.408;24.626;2024-01-06T09:02:26;10.10;96.00
8313;DHT22;4194;43.408;24.626;2024-01-06T09:04:51;10.20;96.50
8313;DHT22;4194;43.408;24.626;2024-01-06T09:07:17;10.40;96.80
8313;DHT22;4194;43.408;24.626;2024-01-06T09:09:43;10.70;96.90
8313;DHT22;4194;43.408;24.626;2024-01-06T09:12:09;10.40;96.50
8313;DHT22;4194;43.408;24.626;2024-01-06T09:14:35;10.60;95.60
8313;DHT22;4194;43.408;24.626;2024-01-06T09:17:01;10.70;94.80
8313;DHT22;4194;43.408;24.626;2024-01-06T09:19:26;10.60;94.70
8313;DHT22;4194;43.408;24.626;2024-01-06T09:21:54;10.70;94.70
8313;DHT22;4194;43.408;24.626;2024-01-06T09:24:21;10.60;94.40
8313;DHT22;4194;43.408;24.626;2024-01-06T09:26:46;10.90;94.70
8313;DHT22;4194;43.408;24.626;2024-01-06T09:29:12;11.10;94.40
8313;DHT22;4194;43.408;24.626;2024-01-06T09:31:38;11.50;94.40
8313;DHT22;4194;43.408;24.626;2024-01-06T09:34:04;11.40;93.40
8313;DHT22;4194;43.408;24.626;2024-01-06T09:36:33;11.60;93.10
8313;DHT22;4194;43.408;24.626;2024-01-06T09:38:58;11.60;92.50
8313;DHT22;4194;43.408;24.626;2024-01-06T09:41:24;11.80;91.20
8313;DHT22;4194;43.408;24.626;2024-01-06T09:43:50;12.10;90.80
8313;DHT22;4194;43.408;24.626;2024-01-06T09:46:27;12.10;90.90
8313;DHT22;4194;43.408;24.626;2024-01-06T09:48:54;12.20;91.10
8313;DHT22;4194;43.408;24.626;2024-01-06T09:51:21;11.80;90.60
8313;DHT22;4194;43.408;24.626;2024-01-06T09:53:56;12.20;88.40
8313;DHT22;4194;43.408;24.626;2024-01-06T09:56:24;12.10;86.40
8313;DHT22;4194;43.408;24.626;2024-01-06T09:58:50;12.10;85.10
8313;DHT22;4194;43.408;24.626;2024-01-06T10:01:17;12.20;86.60
8313;DHT22;4194;43.408;24.626;2024-01-06T10:03:43;12.50;87.70
8313;DHT22;4194;43.408;24.626;2024-01-06T10:06:11;12.40;86.10
8313;DHT22;4194;43.408;24.626;2024-01-06T10:08:38;12.40;83.80
8313;DHT22;4194;43.408;24.626;2024-01-06T10:11:06;12.60;84.70
8313;DHT22;4194;43.408;24.626;2024-01-06T10:13:40;12.70;87.10
8313;DHT22;4194;43.408;24.626;2024-01-06T10:16:07;12.60;84.40
8313;DHT22;4194;43.408;24.626;2024-01-06T10:18:33;12.80;86.20
8313;DHT22;4194;43.408;24.626;2024-01-06T10:21:03;12.30;85.70
8313;DHT22;4194;43.408;24.626;2024-01-06T10:23:32;12.60;84.40
8313;DHT22;4194;43.408;24.626;2024-01-06T10:25:58;12.60;83.20
8313;DHT22;4194;43.408;24.626;2024-01-06T10:28:25;12.60;82.40
8313;DHT22;4194;43.408;24.626;2024-01-06T10:30:56;12.90;82.80
8313;DHT22;4194;43.408;24.626;2024-01-06T10:33:23;13.00;82.40
8313;DHT22;4194;43.408;24.626;2024-01-06T10:35:50;13.00;81.50
8313;DHT22;4194;43.408;24.626;2024-01-06T10:38:16;13.00;82.00
8313;DHT22;4194;43.408;24.626;2024-01-06T10:40:56;13.20;83.30
8313;DHT22;4194;43.408;24.626;2024-01-06T10:43:25;13.20;85.40
8313;DHT22;4194;43.408;24.626;2024-01-06T10:45:53;13.00;86.40
8313;DHT22;4194;43.408;24.626;2024-01-06T10:48:21;12.80;86.80
8313;DHT22;4194;43.408;24.626;2024-01-06T10:50:47;12.80;87.70
8313;DHT22;4194;43.408;24.626;2024-01-06T10:53:14;12.60;89.60
8313;DHT22;4194;43.408;24.626;2024-01-06T10:55:40;12.50;90.30
8313;DHT22;4194;43.408;24.626;2024-01-06T10:58:08;12.30;91.30
8313;DHT22;4194;43.408;24.626;2024-01-06T11:00:35;12.30;92.20
8313;DHT22;4194;43.408;24.626;2024-01-06T11:03:01;12.10;93.00
8313;DHT22;4194;43.408;24.626;2024-01-06T11:05:28;12.20;94.20
8313;DHT22;4194;43.408;24.626;2024-01-06T11:07:54;12.10;94.20
8313;DHT22;4194;43.408;24.626;2024-01-06T11:10:26;12.30;94.50
8313;DHT22;4194;43.408;24.626;2024-01-06T11:13:12;12.30;94.10
8313;DHT22;4194;43.408;24.626;2024-01-06T11:15:51;12.00;94.40
8313;DHT22;4194;43.408;24.626;2024-01-06T11:18:37;12.10;95.00
8313;DHT22;4194;43.408;24.626;2024-01-06T11:21:16;11.90;95.20
8313;DHT22;4194;43.408;24.626;2024-01-06T11:26:32;12.00;95.40
8313;DHT22;4194;43.408;24.626;2024-01-06T11:29:00;12.10;95.50
8313;DHT22;4194;43.408;24.626;2024-01-06T11:31:32;11.80;95.40
8313;DHT22;4194;43.408;24.626;2024-01-06T11:34:18;12.10;95.60
8313;DHT22;4194;43.408;24.626;2024-01-06T11:36:48;12.00;95.80
8313;DHT22;4194;43.408;24.626;2024-01-06T11:39:34;12.00;96.20
8313;DHT22;4194;43.408;24.626;2024-01-06T11:42:01;12.00;96.30
8313;DHT22;4194;43.408;24.626;2024-01-06T11:44:28;11.90;96.40
8313;DHT22;4194;43.408;24.626;2024-01-06T11:46:56;12.00;96.40
8313;DHT22;4194;43.408;24.626;2024-01-06T11:49:26;12.00;96.10
8313;DHT22;4194;43.408;24.626;2024-01-06T11:51:59;11.90;95.70
8313;DHT22;4194;43.408;24.626;2024-01-06T11:54:25;12.60;96.30
8313;DHT22;4194;43.408;24.626;2024-01-06T11:56:51;12.40;96.50
8313;DHT22;4194;43.408;24.626;2024-01-06T11:59:21;12.30;95.70
8313;DHT22;4194;43.408;24.626;2024-01-06T12:01:47;12.80;95.80
8313;DHT22;4194;43.408;24.626;2024-01-06T12:04:16;12.80;95.70
8313;DHT22;4194;43.408;24.626;2024-01-06T12:06:43;12.50;95.00
8313;DHT22;4194;43.408;24.626;2024-01-06T12:09:13;12.50;94.60
8313;DHT22;4194;43.408;24.626;2024-01-06T12:11:42;12.40;94.60
8313;DHT22;4194;43.408;24.626;2024-01-06T12:14:10;12.50;94.10
8313;DHT22;4194;43.408;24.626;2024-01-06T12:16:36;12.60;93.90
8313;DHT22;4194;43.408;24.626;2024-01-06T12:19:02;12.70;93.90
8313;DHT22;4194;43.408;24.626;2024-01-06T12:21:29;12.40;93.80
8313;DHT22;4194;43.408;24.626;2024-01-06T12:24:13;12.80;94.30
8313;DHT22;4194;43.408;24.626;2024-01-06T12:26:41;12.70;94.20
8313;DHT22;4194;43.408;24.626;2024-01-06T12:29:07;12.70;94.00
8313;DHT22;4194;43.408;24.626;2024-01-06T12:31:33;12.20;93.50
8313;DHT22;4194;43.408;24.626;2024-01-06T12:33:59;12.60;93.60
8313;DHT22;4194;43.408;24.626;2024-01-06T12:36:25;12.50;92.60
8313;DHT22;4194;43.408;24.626;2024-01-06T12:38:51;12.60;92.00
8313;DHT22;4194;43.408;24.626;2024-01-06T12:41:16;12.80;92.40
8313;DHT22;4194;43.408;24.626;2024-01-06T12:43:43;12.40;93.10
8313;DHT22;4194;43.408;24.626;2024-01-06T12:46:08;12.10;93.20
8313;DHT22;4194;43.408;24.626;2024-01-06T12:48:34;12.20;93.40
8313;DHT22;4194;43.408;24.626;2024-01-06T12:50:59;12.40;93.60
8313;DHT22;4194;43.408;24.626;2024-01-06T12:53:25;12.30;93.80
8313;DHT22;4194;43.408;24.626;2024-01-06T12:55:51;12.30;94.30
8313;DHT22;4194;43.408;24.626;2024-01-06T12:58:16;12.20;94.00
8313;DHT22;4194;43.408;24.626;2024-01-06T13:00:42;12.10;94.10
8313;DHT22;4194;43.408;24.626;2024-01-06T13:03:08;12.10;94.60
8313;DHT22;4194;43.408;24.626;2024-01-06T13:05:34;11.90;94.90
8313;DHT22;4194;43.408;24.626;2024-01-06T13:08:00;11.80;95.30
8313;DHT22;4194;43.408;24.626;2024-01-06T13:10:27;12.10;93.00
8313;DHT22;4194;43.408;24.626;2024-01-06T13:12:53;11.70;92.60
8313;DHT22;4194;43.408;24.626;2024-01-06T13:15:18;11.30;92.50
8313;DHT22;4194;43.408;24.626;2024-01-06T13:17:44;11.50;92.30
8313;DHT22;4194;43.408;24.626;2024-01-06T13:20:10;11.90;92.70
8313;DHT22;4194;43.408;24.626;2024-01-06T13:22:36;11.60;92.80
8313;DHT22;4194;43.408;24.626;2024-01-06T13:25:02;11.30;92.90
8313;DHT22;4194;43.408;24.626;2024-01-06T13:27:28;11.60;93.50
8313;DHT22;4194;43.408;24.626;2024-01-06T13:29:54;11.60;93.90
8313;DHT22;4194;43.408;24.626;2024-01-06T13:32:20;11.50;94.20
8313;DHT22;4194;43.408;24.626;2024-01-06T13:34:47;11.50;94.30
8313;DHT22;4194;43.408;24.626;2024-01-06T13:37:13;11.50;94.40
8313;DHT22;4194;43.408;24.626;2024-01-06T13:39:39;11.40;94.60
8313;DHT22;4194;43.408;24.626;2024-01-06T13:42:05;11.30;94.50
8313;DHT22;4194;43.408;24.626;2024-01-06T13:44:30;11.30;94.40
8313;DHT22;4194;43.408;24.626;2024-01-06T13:46:56;11.20;94.10
8313;DHT22;4194;43.408;24.626;2024-01-06T13:49:22;11.20;94.30
8313;DHT22;4194;43.408;24.626;2024-01-06T13:51:49;11.20;94.40
8313;DHT22;4194;43.408;24.626;2024-01-06T13:54:16;11.20;94.50
8313;DHT22;4194;43.408;24.626;2024-01-06T13:56:41;11.20;94.70
8313;DHT22;4194;43.408;24.626;2024-01-06T13:59:07;11.10;94.90
8313;DHT22;4194;43.408;24.626;2024-01-06T14:01:33;11.10;95.40
8313;DHT22;4194;43.408;24.626;2024-01-06T14:04:00;10.90;95.90
8313;DHT22;4194;43.408;24.626;2024-01-06T14:06:27;10.90;96.10
8313;DHT22;4194;43.408;24.626;2024-01-06T14:08:58;10.80;96.20
8313;DHT22;4194;43.408;24.626;2024-01-06T14:11:25;10.40;96.40
8313;DHT22;4194;43.408;24.626;2024-01-06T14:13:52;10.60;97.60
8313;DHT22;4194;43.408;24.626;2024-01-06T14:16:18;10.70;98.90
8313;DHT22;4194;43.408;24.626;2024-01-06T14:18:44;10.70;99.80
8313;DHT22;4194;43.408;24.626;2024-01-06T14:21:10;10.70;99.90
8313;DHT22;4194;43.408;24.626;2024-01-06T14:23:36;10.70;99.90
8313;DHT22;4194;43.408;24.626;2024-01-06T14:26:02;10.70;99.90
8313;DHT22;4194;43.408;24.626;2024-01-06T14:28:28;10.70;99.90
8313;DHT22;4194;43.408;24.626;2024-01-06T14:30:55;10.90;99.90
8313;DHT22;4194;43.408;24.626;2024-01-06T14:33:21;10.40;99.90
8313;DHT22;4194;43.408;24.626;2024-01-06T14:35:47;10.80;99.90
8313;DHT22;4194;43.408;24.626;2024-01-06T14:38:13;10.50;99.90
8313;DHT22;4194;43.408;24.626;2024-01-06T14:40:38;10.60;99.90
8313;DHT22;4194;43.408;24.626;2024-01-06T14:43:04;10.20;99.90
8313;DHT22;4194;43.408;24.626;2024-01-06T14:45:31;10.70;99.90
8313;DHT22;4194;43.408;24.626;2024-01-06T14:47:57;10.70;99.90
8313;DHT22;4194;43.408;24.626;2024-01-06T14:50:22;10.40;99.90
8313;DHT22;4194;43.408;24.626;2024-01-06T14:52:48;10.40;99.90
8313;DHT22;4194;43.408;24.626;2024-01-06T14:55:15;10.20;99.90
8313;DHT22;4194;43.408;24.626;2024-01-06T14:57:40;10.20;99.90
8313;DHT22;4194;43.408;24.626;2024-01-06T15:00:06;10.00;99.90
8313;DHT22;4194;43.408;24.626;2024-01-06T15:02:39;10.20;99.90
8313;DHT22;4194;43.408;24.626;2024-01-06T15:05:06;10.40;99.90
8313;DHT22;4194;43.408;24.626;2024-01-06T15:07:31;10.20;99.90
8313;DHT22;4194;43.408;24.626;2024-01-06T15:10:01;9.50;99.90
8313;DHT22;4194;43.408;24.626;2024-01-06T15:12:27;9.90;99.90
8313;DHT22;4194;43.408;24.626;2024-01-06T15:14:53;9.80;99.90
8313;DHT22;4194;43.408;24.626;2024-01-06T15:17:19;9.80;99.90
8313;DHT22;4194;43.408;24.626;2024-01-06T15:19:46;10.20;99.90
8313;DHT22;4194;43.408;24.626;2024-01-06T15:22:11;9.70;99.90
8313;DHT22;4194;43.408;24.626;2024-01-06T15:24:39;9.70;99.90
8313;DHT22;4194;43.408;24.626;2024-01-06T15:27:04;9.10;99.90
8313;DHT22;4194;43.408;24.626;2024-01-06T15:29:30;9.50;99.90
8313;DHT22;4194;43.408;24.626;2024-01-06T15:31:56;9.60;99.90
8313;DHT22;4194;43.408;24.626;2024-01-06T15:34:25;9.50;99.90
8313;DHT22;4194;43.408;24.626;2024-01-06T15:36:50;9.40;99.90
8313;DHT22;4194;43.408;24.626;2024-01-06T15:39:16;9.40;99.90
8313;DHT22;4194;43.408;24.626;2024-01-06T15:41:42;9.40;99.90
8313;DHT22;4194;43.408;24.626;2024-01-06T15:44:08;9.40;99.90
8313;DHT22;4194;43.408;24.626;2024-01-06T15:46:34;9.30;99.90
8313;DHT22;4194;43.408;24.626;2024-01-06T15:48:59;9.30;99.90
8313;DHT22;4194;43.408;24.626;2024-01-06T15:51:25;9.30;99.90
8313;DHT22;4194;43.408;24.626;2024-01-06T15:53:51;9.30;99.90